Time;durP1;ratioP1;P1;durP2;ratioP2;P2;SDS_P1;SDS_P2;PMS_P1;PMS_P2;Temp;Humidity;BMP_temperature;BMP_pressure;BME280_temperature;BME280_humidity;BME280_pressure;Samples;Min_cycle;Max_cycle;Signal;HPM_P1;HPM_P2
2023/10/28 00:01:02;;;;;;;;;;;10.30;99.90;;;;;;7318300;19;9309;-82
2023/10/28 00:03:31;;;;;;;;;;;10.40;99.90;;;;;;7320291;19;9427;-83
2023/10/28 00:06:01;;;;;;;;;;;10.40;99.90;;;;;;7315966;19;9967;-83
2023/10/28 00:08:34;;;;;;;;;;;10.30;99.90;;;;;;7317116;19;10290;-82
2023/10/28 00:11:04;;;;;;;;;;;10.30;99.90;;;;;;7318572;19;10247;-82
2023/10/28 00:13:33;;;;;;;;;;;10.30;99.90;;;;;;7321974;19;9332;-83
2023/10/28 00:16:02;;;;;;;;;;;10.30;99.90;;;;;;7317997;19;9279;-82
2023/10/28 00:18:31;;;;;;;;;;;10.20;99.90;;;;;;7302531;19;9594;-83
2023/10/28 00:21:01;;;;;;;;;;;10.30;99.90;;;;;;7304112;19;9375;-82
2023/10/28 00:23:31;;;;;;;;;;;10.30;99.90;;;;;;7316500;19;9531;-82
2023/10/28 00:26:07;;;;;;;;;;;10.30;99.90;;;;;;7310028;19;9360;-82
2023/10/28 00:28:36;;;;;;;;;;;10.30;99.90;;;;;;7315722;19;10809;-82
2023/10/28 00:31:06;;;;;;;;;;;10.30;99.90;;;;;;7315154;19;9337;-82
2023/10/28 00:33:36;;;;;;;;;;;10.30;99.90;;;;;;7313949;19;9234;-82
2023/10/28 00:36:11;;;;;;;;;;;10.30;99.90;;;;;;7316885;19;9234;-82
2023/10/28 00:38:40;;;;;;;;;;;10.30;99.90;;;;;;7313764;19;9313;-82
2023/10/28 00:41:11;;;;;;;;;;;10.30;99.90;;;;;;7315320;19;10257;-82
2023/10/28 00:43:40;;;;;;;;;;;10.30;99.90;;;;;;7317320;19;9440;-82
2023/10/28 00:46:09;;;;;;;;;;;10.30;99.90;;;;;;7316780;19;10750;-82
2023/10/28 00:48:39;;;;;;;;;;;10.30;99.90;;;;;;7317473;19;9358;-82
2023/10/28 00:51:09;;;;;;;;;;;10.30;99.90;;;;;;7314549;19;9565;-82
2023/10/28 00:53:39;;;;;;;;;;;10.30;99.90;;;;;;7315800;19;9233;-82
2023/10/28 00:56:11;;;;;;;;;;;10.30;99.90;;;;;;7316474;19;9288;-82
2023/10/28 00:58:42;;;;;;;;;;;10.30;99.90;;;;;;7316228;19;9515;-82
2023/10/28 01:01:13;;;;;;;;;;;10.30;99.90;;;;;;7312851;19;9555;-82
2023/10/28 01:03:44;;;;;;;;;;;10.30;99.90;;;;;;7318297;19;9554;-82
2023/10/28 01:06:14;;;;;;;;;;;10.30;99.90;;;;;;7318737;19;9251;-82
2023/10/28 01:08:42;;;;;;;;;;;10.30;99.90;;;;;;7317530;19;9127;-82
2023/10/28 01:11:14;;;;;;;;;;;10.20;99.90;;;;;;7319093;19;9348;-82
2023/10/28 01:13:43;;;;;;;;;;;10.20;99.90;;;;;;7316247;19;9514;-82
2023/10/28 01:16:12;;;;;;;;;;;10.20;99.90;;;;;;7319500;19;9375;-82
2023/10/28 01:18:41;;;;;;;;;;;10.30;99.90;;;;;;7318376;19;10377;-82
2023/10/28 01:21:15;;;;;;;;;;;10.20;99.90;;;;;;7319854;19;10325;-82
2023/10/28 01:23:44;;;;;;;;;;;10.20;99.90;;;;;;7316098;19;9508;-82
2023/10/28 01:26:13;;;;;;;;;;;10.20;99.90;;;;;;7316734;19;9533;-82
2023/10/28 01:28:43;;;;;;;;;;;10.20;99.90;;;;;;7316178;19;9562;-82
2023/10/28 01:31:12;;;;;;;;;;;10.20;99.90;;;;;;7319919;19;9137;-82
2023/10/28 01:33:41;;;;;;;;;;;10.20;99.90;;;;;;7316246;19;9248;-82
2023/10/28 01:36:10;;;;;;;;;;;10.20;99.90;;;;;;7316767;19;9226;-82
2023/10/28 01:38:42;;;;;;;;;;;10.20;99.90;;;;;;7316957;19;9452;-82
2023/10/28 01:41:13;;;;;;;;;;;10.20;99.90;;;;;;7318194;19;9551;-81
2023/10/28 01:43:44;;;;;;;;;;;10.20;99.90;;;;;;7317636;19;9364;-82
2023/10/28 01:46:13;;;;;;;;;;;10.10;99.90;;;;;;7318655;19;9379;-82
2023/10/28 01:48:42;;;;;;;;;;;10.10;99.90;;;;;;7316752;19;9293;-82
2023/10/28 01:51:12;;;;;;;;;;;10.20;99.90;;;;;;7315414;19;9583;-82
2023/10/28 01:53:43;;;;;;;;;;;10.20;99.90;;;;;;7317957;19;10645;-82
2023/10/28 01:56:12;;;;;;;;;;;10.20;99.90;;;;;;7317091;19;9228;-82
2023/10/28 01:58:41;;;;;;;;;;;10.20;99.90;;;;;;7318652;19;9130;-82
2023/10/28 02:01:10;;;;;;;;;;;10.20;99.90;;;;;;7318219;19;9520;-82
2023/10/28 02:03:39;;;;;;;;;;;10.20;99.90;;;;;;7317956;19;9351;-82
2023/10/28 02:06:10;;;;;;;;;;;10.20;99.90;;;;;;7316224;19;9478;-82
2023/10/28 02:08:39;;;;;;;;;;;10.20;99.90;;;;;;7317354;19;9476;-82
2023/10/28 02:11:10;;;;;;;;;;;10.30;99.90;;;;;;7314607;19;9174;-83
2023/10/28 02:13:39;;;;;;;;;;;10.30;99.90;;;;;;7319060;19;9281;-82
2023/10/28 02:16:09;;;;;;;;;;;10.20;99.90;;;;;;7317947;19;9456;-83
2023/10/28 02:18:37;;;;;;;;;;;10.20;99.90;;;;;;7316605;19;9183;-83
2023/10/28 02:21:06;;;;;;;;;;;10.30;99.90;;;;;;7315742;19;9514;-83
2023/10/28 02:23:35;;;;;;;;;;;10.20;99.90;;;;;;7316949;19;9659;-82
2023/10/28 02:26:05;;;;;;;;;;;10.30;99.90;;;;;;7318616;19;8968;-83
2023/10/28 02:28:36;;;;;;;;;;;10.20;99.90;;;;;;7315236;19;9163;-82
2023/10/28 02:31:11;;;;;;;;;;;10.30;99.90;;;;;;7315914;19;9151;-83
2023/10/28 02:33:40;;;;;;;;;;;10.30;99.90;;;;;;7316856;19;9199;-82
2023/10/28 02:36:10;;;;;;;;;;;10.30;99.90;;;;;;7313591;19;9494;-83
2023/10/28 02:38:40;;;;;;;;;;;10.40;99.90;;;;;;7313636;19;9254;-83
2023/10/28 02:41:09;;;;;;;;;;;10.40;99.90;;;;;;7315053;19;9360;-83
2023/10/28 02:43:41;;;;;;;;;;;10.30;99.90;;;;;;7317282;19;9924;-83
2023/10/28 02:46:10;;;;;;;;;;;10.30;99.90;;;;;;7322294;19;9250;-83
2023/10/28 02:48:39;;;;;;;;;;;10.30;99.90;;;;;;7323081;19;9624;-82
2023/10/28 02:51:10;;;;;;;;;;;10.30;99.90;;;;;;7320305;19;9130;-82
2023/10/28 02:53:40;;;;;;;;;;;10.30;99.90;;;;;;7322271;19;9303;-82
2023/10/28 02:56:09;;;;;;;;;;;10.30;99.90;;;;;;7324029;19;9101;-82
2023/10/28 02:58:41;;;;;;;;;;;10.30;99.90;;;;;;7324141;19;9237;-82
2023/10/28 03:01:11;;;;;;;;;;;10.30;99.90;;;;;;7316048;19;11146;-82
2023/10/28 03:03:42;;;;;;;;;;;10.30;99.90;;;;;;7321707;19;9327;-82
2023/10/28 03:06:11;;;;;;;;;;;10.30;99.90;;;;;;7319561;19;9234;-82
2023/10/28 03:08:41;;;;;;;;;;;10.30;99.90;;;;;;7323197;19;9396;-82
2023/10/28 03:11:10;;;;;;;;;;;10.30;99.90;;;;;;7320572;19;9207;-83
2023/10/28 03:13:41;;;;;;;;;;;10.30;99.90;;;;;;7323468;19;9210;-83
2023/10/28 03:16:10;;;;;;;;;;;10.30;99.90;;;;;;7319755;19;9636;-83
2023/10/28 03:18:39;;;;;;;;;;;10.20;99.90;;;;;;7321345;19;9305;-82
2023/10/28 03:21:08;;;;;;;;;;;10.30;99.90;;;;;;7316933;19;9548;-83
2023/10/28 03:23:37;;;;;;;;;;;10.30;99.90;;;;;;7322231;19;9237;-82
2023/10/28 03:26:08;;;;;;;;;;;10.30;99.90;;;;;;7319829;19;9226;-82
2023/10/28 03:28:37;;;;;;;;;;;10.30;99.90;;;;;;7323121;19;9473;-83
2023/10/28 03:31:13;;;;;;;;;;;10.30;99.90;;;;;;7317021;19;9341;-82
2023/10/28 03:33:42;;;;;;;;;;;10.30;99.90;;;;;;7322056;19;9394;-83
2023/10/28 03:36:11;;;;;;;;;;;10.30;99.90;;;;;;7321312;19;9452;-83
2023/10/28 03:38:41;;;;;;;;;;;10.30;99.90;;;;;;7323322;19;9436;-83
2023/10/28 03:41:11;;;;;;;;;;;10.30;99.90;;;;;;7318656;19;9304;-83
2023/10/28 03:43:41;;;;;;;;;;;10.30;99.90;;;;;;7319324;19;9711;-83
2023/10/28 03:46:20;;;;;;;;;;;10.30;99.90;;;;;;7318783;19;9552;-83
2023/10/28 03:48:49;;;;;;;;;;;10.30;99.90;;;;;;7320251;19;9239;-82
2023/10/28 03:51:17;;;;;;;;;;;10.30;99.90;;;;;;7323030;19;9237;-83
2023/10/28 03:53:47;;;;;;;;;;;10.30;99.90;;;;;;7321049;19;9399;-83
2023/10/28 03:56:16;;;;;;;;;;;10.30;99.90;;;;;;7317504;19;9294;-83
2023/10/28 03:58:45;;;;;;;;;;;10.40;99.90;;;;;;7320595;19;9767;-83
2023/10/28 04:01:17;;;;;;;;;;;10.40;99.90;;;;;;7317585;19;9293;-83
2023/10/28 04:03:46;;;;;;;;;;;10.50;99.90;;;;;;7320382;19;9583;-84
2023/10/28 04:06:14;;;;;;;;;;;10.40;99.90;;;;;;7319096;19;9398;-83
2023/10/28 04:08:43;;;;;;;;;;;10.30;99.90;;;;;;7319826;19;9234;-83
2023/10/28 04:11:12;;;;;;;;;;;10.30;99.90;;;;;;7318970;19;9123;-83
2023/10/28 04:13:41;;;;;;;;;;;10.30;99.90;;;;;;7320173;19;11147;-83
2023/10/28 04:16:10;;;;;;;;;;;10.40;99.90;;;;;;7318166;19;9582;-84
2023/10/28 04:18:42;;;;;;;;;;;10.40;99.90;;;;;;7321536;19;9190;-83
2023/10/28 04:21:11;;;;;;;;;;;10.30;99.90;;;;;;7318815;19;9356;-83
2023/10/28 04:23:40;;;;;;;;;;;10.30;99.90;;;;;;7319028;19;10833;-83
2023/10/28 04:26:09;;;;;;;;;;;10.40;99.90;;;;;;7320020;19;9486;-83
2023/10/28 04:28:38;;;;;;;;;;;10.30;99.90;;;;;;7320940;19;9135;-83
2023/10/28 04:31:07;;;;;;;;;;;10.40;99.90;;;;;;7319000;19;9409;-83
2023/10/28 04:33:36;;;;;;;;;;;10.40;99.90;;;;;;7319169;19;9560;-83
2023/10/28 04:36:09;;;;;;;;;;;10.40;99.90;;;;;;7319812;19;9137;-83
2023/10/28 04:38:40;;;;;;;;;;;10.30;99.90;;;;;;7317653;19;9428;-83
2023/10/28 04:41:10;;;;;;;;;;;10.30;99.90;;;;;;7312813;19;10325;-83
2023/10/28 04:43:39;;;;;;;;;;;10.30;99.90;;;;;;7315667;19;9276;-83
2023/10/28 04:46:08;;;;;;;;;;;10.20;99.90;;;;;;7318602;19;9198;-83
2023/10/28 04:48:38;;;;;;;;;;;10.30;99.90;;;;;;7320539;19;9143;-83
2023/10/28 04:51:10;;;;;;;;;;;10.30;99.90;;;;;;7316138;19;9286;-83
2023/10/28 04:53:39;;;;;;;;;;;10.30;99.90;;;;;;7319303;19;9379;-83
2023/10/28 04:56:09;;;;;;;;;;;10.30;99.90;;;;;;7319185;19;8979;-84
2023/10/28 04:58:38;;;;;;;;;;;10.30;99.90;;;;;;7317920;19;9222;-83
2023/10/28 05:01:07;;;;;;;;;;;10.30;99.90;;;;;;7320519;19;9359;-83
2023/10/28 05:03:37;;;;;;;;;;;10.30;99.90;;;;;;7318123;19;9290;-83
2023/10/28 05:06:09;;;;;;;;;;;10.30;99.90;;;;;;7316670;19;9358;-83
2023/10/28 05:08:41;;;;;;;;;;;10.20;99.90;;;;;;7316538;19;9599;-83
2023/10/28 05:11:15;;;;;;;;;;;10.30;99.90;;;;;;7318687;19;9483;-83
2023/10/28 05:13:45;;;;;;;;;;;10.20;99.90;;;;;;7317586;19;9312;-83
2023/10/28 05:16:14;;;;;;;;;;;10.30;99.90;;;;;;7319320;19;9134;-82
2023/10/28 05:18:42;;;;;;;;;;;10.30;99.90;;;;;;7320143;19;9623;-83
2023/10/28 05:21:11;;;;;;;;;;;10.30;99.90;;;;;;7319045;19;9234;-82
2023/10/28 05:23:43;;;;;;;;;;;10.30;99.90;;;;;;7320319;19;9281;-83
2023/10/28 05:26:12;;;;;;;;;;;10.30;99.90;;;;;;7318756;19;9186;-83
2023/10/28 05:28:41;;;;;;;;;;;10.30;99.90;;;;;;7315894;19;9190;-83
2023/10/28 05:31:10;;;;;;;;;;;10.30;99.90;;;;;;7317990;19;10307;-83
2023/10/28 05:33:39;;;;;;;;;;;10.20;99.90;;;;;;7314393;19;9285;-83
2023/10/28 05:36:09;;;;;;;;;;;10.20;99.90;;;;;;7316198;19;9514;-83
2023/10/28 05:38:38;;;;;;;;;;;10.30;99.90;;;;;;7318100;19;9730;-83
2023/10/28 05:41:09;;;;;;;;;;;10.30;99.90;;;;;;7317023;19;9257;-83
2023/10/28 05:43:38;;;;;;;;;;;10.30;99.90;;;;;;7315548;19;10327;-83
2023/10/28 05:46:13;;;;;;;;;;;10.30;99.90;;;;;;7319352;19;9721;-82
2023/10/28 05:48:42;;;;;;;;;;;10.40;99.90;;;;;;7315987;19;9305;-83
2023/10/28 05:51:12;;;;;;;;;;;10.40;99.90;;;;;;7318206;19;9558;-83
2023/10/28 05:53:40;;;;;;;;;;;10.50;99.90;;;;;;7316800;19;9254;-83
2023/10/28 05:56:14;;;;;;;;;;;10.50;99.90;;;;;;7318849;19;9394;-83
2023/10/28 05:58:42;;;;;;;;;;;10.60;99.90;;;;;;7315644;19;10705;-83
2023/10/28 06:01:13;;;;;;;;;;;10.70;99.90;;;;;;7318634;19;9182;-82
2023/10/28 06:03:41;;;;;;;;;;;10.70;99.90;;;;;;7318809;19;9326;-82
2023/10/28 06:06:11;;;;;;;;;;;10.70;99.90;;;;;;7317176;19;9245;-83
2023/10/28 06:08:40;;;;;;;;;;;10.60;99.90;;;;;;7317420;19;9140;-83
2023/10/28 06:11:12;;;;;;;;;;;10.60;99.90;;;;;;7316021;19;10671;-83
2023/10/28 06:13:41;;;;;;;;;;;10.60;99.90;;;;;;7318338;19;9776;-83
2023/10/28 06:16:10;;;;;;;;;;;10.60;99.90;;;;;;7314850;19;9495;-83
2023/10/28 06:18:39;;;;;;;;;;;10.60;99.90;;;;;;7314034;19;9451;-83
2023/10/28 06:21:11;;;;;;;;;;;10.60;99.90;;;;;;7315025;19;9278;-83
2023/10/28 06:23:40;;;;;;;;;;;10.60;99.90;;;;;;7316809;19;10742;-82
2023/10/28 06:26:12;;;;;;;;;;;10.60;99.90;;;;;;7312585;19;9300;-82
2023/10/28 06:28:42;;;;;;;;;;;10.60;99.90;;;;;;7316429;19;9232;-83
2023/10/28 06:31:11;;;;;;;;;;;10.60;99.90;;;;;;7314424;19;9316;-83
2023/10/28 06:33:40;;;;;;;;;;;10.60;99.90;;;;;;7316915;19;9610;-82
2023/10/28 06:36:10;;;;;;;;;;;10.60;99.90;;;;;;7314952;19;9466;-83
2023/10/28 06:38:40;;;;;;;;;;;10.60;99.90;;;;;;7315965;19;9319;-83
2023/10/28 06:41:09;;;;;;;;;;;10.60;99.90;;;;;;7313616;19;9277;-83
2023/10/28 06:43:40;;;;;;;;;;;10.50;99.90;;;;;;7317647;19;9240;-83
2023/10/28 06:46:09;;;;;;;;;;;10.50;99.90;;;;;;7313677;19;9266;-83
2023/10/28 06:48:38;;;;;;;;;;;10.50;99.90;;;;;;7314838;19;9698;-83
2023/10/28 06:51:07;;;;;;;;;;;10.50;99.90;;;;;;7317914;19;9265;-83
2023/10/28 06:53:36;;;;;;;;;;;10.50;99.90;;;;;;7315972;19;9326;-83
2023/10/28 06:56:05;;;;;;;;;;;10.50;99.90;;;;;;7312284;19;9208;-82
2023/10/28 06:58:35;;;;;;;;;;;10.50;99.90;;;;;;7315169;19;9690;-82
2023/10/28 07:01:09;;;;;;;;;;;10.50;99.90;;;;;;7315887;19;9495;-82
2023/10/28 07:03:40;;;;;;;;;;;10.50;99.90;;;;;;7317701;19;9264;-82
2023/10/28 07:06:09;;;;;;;;;;;10.60;99.90;;;;;;7314536;19;9188;-83
2023/10/28 07:08:38;;;;;;;;;;;10.60;99.90;;;;;;7316608;19;9598;-82
2023/10/28 07:11:07;;;;;;;;;;;10.60;99.90;;;;;;7317050;19;9307;-83
2023/10/28 07:13:36;;;;;;;;;;;10.60;99.90;;;;;;7315445;19;10442;-83
2023/10/28 07:16:09;;;;;;;;;;;10.60;99.90;;;;;;7311775;19;9341;-83
2023/10/28 07:18:38;;;;;;;;;;;10.60;99.90;;;;;;7313042;19;9596;-83
2023/10/28 07:21:08;;;;;;;;;;;10.60;99.90;;;;;;7312570;19;9266;-83
2023/10/28 07:23:36;;;;;;;;;;;10.70;99.90;;;;;;7315963;19;9182;-83
2023/10/28 07:26:06;;;;;;;;;;;10.80;99.90;;;;;;7311085;19;10332;-82
2023/10/28 07:28:36;;;;;;;;;;;10.80;99.90;;;;;;7314993;19;9134;-83
2023/10/28 07:31:07;;;;;;;;;;;10.80;99.90;;;;;;7316207;19;9242;-82
2023/10/28 07:33:36;;;;;;;;;;;10.80;99.90;;;;;;7321314;19;9478;-83
2023/10/28 07:36:07;;;;;;;;;;;10.80;99.90;;;;;;7318127;19;9213;-83
2023/10/28 07:38:36;;;;;;;;;;;10.70;99.90;;;;;;7320152;19;9241;-83
2023/10/28 07:41:06;;;;;;;;;;;10.80;99.90;;;;;;7319656;19;9443;-82
2023/10/28 07:43:36;;;;;;;;;;;10.90;99.90;;;;;;7316772;19;9326;-82
2023/10/28 07:46:07;;;;;;;;;;;10.80;99.90;;;;;;7317041;19;9428;-82
2023/10/28 07:48:36;;;;;;;;;;;10.80;99.90;;;;;;7320892;19;9516;-83
2023/10/28 07:51:05;;;;;;;;;;;10.80;99.90;;;;;;7320228;19;10383;-82
2023/10/28 07:53:34;;;;;;;;;;;10.80;99.90;;;;;;7322103;19;9166;-83
2023/10/28 07:56:03;;;;;;;;;;;10.80;99.90;;;;;;7312889;19;9404;-82
2023/10/28 07:58:32;;;;;;;;;;;10.90;99.90;;;;;;7318390;19;9221;-83
2023/10/28 08:01:02;;;;;;;;;;;10.90;99.90;;;;;;7321339;19;9239;-83
2023/10/28 08:03:34;;;;;;;;;;;11.00;99.90;;;;;;7320528;19;9249;-83
2023/10/28 08:06:10;;;;;;;;;;;11.00;99.90;;;;;;7320506;19;9431;-83
2023/10/28 08:08:39;;;;;;;;;;;11.10;99.90;;;;;;7321991;19;9393;-83
2023/10/28 08:11:09;;;;;;;;;;;11.10;99.90;;;;;;7318077;19;9136;-84
2023/10/28 08:13:38;;;;;;;;;;;11.20;99.90;;;;;;7296876;19;9261;-83
2023/10/28 08:16:09;;;;;;;;;;;11.20;99.90;;;;;;7309931;19;9206;-82
2023/10/28 08:18:41;;;;;;;;;;;11.30;99.90;;;;;;7298124;19;9488;-82
2023/10/28 08:21:13;;;;;;;;;;;11.30;99.90;;;;;;7318342;19;10328;-82
2023/10/28 08:23:42;;;;;;;;;;;11.30;99.90;;;;;;7315302;19;9172;-83
2023/10/28 08:26:14;;;;;;;;;;;11.30;99.90;;;;;;7321491;19;9527;-82
2023/10/28 08:28:43;;;;;;;;;;;11.30;99.90;;;;;;7320286;19;9525;-81
2023/10/28 08:31:12;;;;;;;;;;;11.40;99.90;;;;;;7316803;19;10460;-82
2023/10/28 08:33:44;;;;;;;;;;;11.50;99.90;;;;;;7318483;19;9330;-85
2023/10/28 08:36:13;;;;;;;;;;;11.60;99.90;;;;;;7319640;19;9255;-86
2023/10/28 08:38:42;;;;;;;;;;;11.60;99.90;;;;;;7318837;19;9458;-84
2023/10/28 08:41:11;;;;;;;;;;;11.60;99.90;;;;;;7314166;19;9410;-84
2023/10/28 08:43:42;;;;;;;;;;;11.60;99.90;;;;;;7305940;19;9680;-84
2023/10/28 08:46:15;;;;;;;;;;;11.60;99.90;;;;;;7320573;19;9269;-84
2023/10/28 08:48:48;;;;;;;;;;;11.60;99.90;;;;;;7301790;19;9846;-84
2023/10/28 08:51:18;;;;;;;;;;;11.50;99.90;;;;;;7313636;19;9523;-84
2023/10/28 08:53:48;;;;;;;;;;;11.60;99.90;;;;;;7320966;19;9112;-86
2023/10/28 08:56:22;;;;;;;;;;;11.60;99.90;;;;;;7320931;19;10137;-81
2023/10/28 08:58:52;;;;;;;;;;;11.60;99.90;;;;;;7296373;19;9563;-82
2023/10/28 09:01:22;;;;;;;;;;;11.60;99.90;;;;;;7307474;19;9306;-80
2023/10/28 09:03:57;;;;;;;;;;;11.60;99.90;;;;;;7317108;19;9448;-82
2023/10/28 09:06:26;;;;;;;;;;;11.60;99.90;;;;;;7318093;19;9609;-83
2023/10/28 09:08:57;;;;;;;;;;;11.60;99.90;;;;;;7314356;19;9501;-78
2023/10/28 09:11:27;;;;;;;;;;;11.70;99.90;;;;;;7309888;19;10323;-80
2023/10/28 09:13:56;;;;;;;;;;;11.70;99.90;;;;;;7305030;19;9109;-79
2023/10/28 09:16:25;;;;;;;;;;;11.70;99.90;;;;;;7302797;19;11262;-76
2023/10/28 09:18:57;;;;;;;;;;;11.70;99.90;;;;;;7300965;19;9270;-80
2023/10/28 09:21:26;;;;;;;;;;;11.80;99.90;;;;;;7296776;19;9265;-79
2023/10/28 09:23:55;;;;;;;;;;;11.80;99.90;;;;;;7308712;19;9476;-81
2023/10/28 09:26:24;;;;;;;;;;;11.80;99.90;;;;;;7303559;19;9442;-83
2023/10/28 09:28:53;;;;;;;;;;;11.80;99.90;;;;;;7300294;19;9276;-82
2023/10/28 09:31:29;;;;;;;;;;;11.80;99.90;;;;;;7297828;19;9127;-83
2023/10/28 09:34:02;;;;;;;;;;;11.70;99.90;;;;;;7307619;19;9480;-83
2023/10/28 09:36:37;;;;;;;;;;;11.70;99.90;;;;;;7308521;19;9281;-82
2023/10/28 09:39:07;;;;;;;;;;;11.80;99.90;;;;;;7303299;19;9269;-78
2023/10/28 09:41:38;;;;;;;;;;;11.80;99.90;;;;;;7318273;19;11188;-80
2023/10/28 09:44:10;;;;;;;;;;;11.90;99.90;;;;;;7317287;19;9265;-81
2023/10/28 09:46:40;;;;;;;;;;;11.90;99.90;;;;;;7293379;19;9432;-81
2023/10/28 09:49:16;;;;;;;;;;;12.00;99.90;;;;;;7306406;19;9262;-79
2023/10/28 09:51:50;;;;;;;;;;;12.10;99.90;;;;;;7319152;19;9242;-80
2023/10/28 09:54:27;;;;;;;;;;;12.20;99.90;;;;;;7319032;19;9209;-81
2023/10/28 09:57:00;;;;;;;;;;;12.20;99.90;;;;;;7301393;19;9127;-81
2023/10/28 09:59:33;;;;;;;;;;;12.20;99.90;;;;;;7299488;19;10896;-81
2023/10/28 10:02:22;;;;;;;;;;;12.30;99.90;;;;;;7313609;19;9260;-80
2023/10/28 10:05:02;;;;;;;;;;;12.30;99.90;;;;;;7320927;19;9515;-95
2023/10/28 10:07:31;;;;;;;;;;;12.30;99.90;;;;;;7316422;19;9559;-91
2023/10/28 10:10:13;;;;;;;;;;;12.30;99.90;;;;;;7304785;19;9286;-92
2023/10/28 10:12:42;;;;;;;;;;;12.20;99.90;;;;;;7307438;19;11085;-81
2023/10/28 10:15:19;;;;;;;;;;;12.20;99.90;;;;;;7300694;19;9312;-83
2023/10/28 10:18:05;;;;;;;;;;;12.20;99.90;;;;;;7312430;19;9511;-83
2023/10/28 10:20:38;;;;;;;;;;;12.30;99.90;;;;;;7318213;19;9455;-83
2023/10/28 10:23:09;;;;;;;;;;;12.30;99.90;;;;;;7314863;19;9127;-82
2023/10/28 10:25:43;;;;;;;;;;;12.40;99.90;;;;;;7290999;19;9793;-83
2023/10/28 10:28:19;;;;;;;;;;;12.50;99.90;;;;;;7305563;19;9589;-83
2023/10/28 10:30:49;;;;;;;;;;;12.40;99.90;;;;;;7313622;19;9317;-84
2023/10/28 10:33:27;;;;;;;;;;;12.50;99.90;;;;;;7310705;19;9252;-86
2023/10/28 10:35:59;;;;;;;;;;;12.40;99.90;;;;;;7313929;19;9319;-87
2023/10/28 10:38:32;;;;;;;;;;;12.40;99.90;;;;;;7317504;19;9257;-84
2023/10/28 10:41:01;;;;;;;;;;;12.40;99.90;;;;;;7314639;19;9413;-85
2023/10/28 10:43:33;;;;;;;;;;;12.30;99.90;;;;;;7317816;19;9193;-83
2023/10/28 10:46:03;;;;;;;;;;;12.40;99.90;;;;;;7314378;19;9465;-84
2023/10/28 10:48:36;;;;;;;;;;;12.40;99.90;;;;;;7314430;19;9120;-82
2023/10/28 10:51:08;;;;;;;;;;;12.40;99.90;;;;;;7311824;19;9512;-84
2023/10/28 10:53:44;;;;;;;;;;;12.40;99.90;;;;;;7302015;19;11210;-82
2023/10/28 10:56:21;;;;;;;;;;;12.30;99.90;;;;;;7314080;19;9110;-77
2023/10/28 10:58:50;;;;;;;;;;;12.30;99.90;;;;;;7291172;19;9227;-81
2023/10/28 11:01:19;;;;;;;;;;;12.30;99.90;;;;;;7288948;19;9266;-81
2023/10/28 11:03:49;;;;;;;;;;;12.30;99.90;;;;;;7290123;19;9265;-81
2023/10/28 11:06:24;;;;;;;;;;;12.30;99.90;;;;;;7300976;19;9489;-81
2023/10/28 11:08:53;;;;;;;;;;;12.40;99.90;;;;;;7303756;19;9354;-81
2023/10/28 11:11:22;;;;;;;;;;;12.50;99.90;;;;;;7297017;19;9296;-81
2023/10/28 11:13:51;;;;;;;;;;;12.40;99.90;;;;;;7303972;19;9505;-81
2023/10/28 11:16:26;;;;;;;;;;;12.40;99.90;;;;;;7303982;19;9256;-81
2023/10/28 11:18:55;;;;;;;;;;;12.50;99.90;;;;;;7318486;19;9206;-82
2023/10/28 11:21:28;;;;;;;;;;;12.50;99.90;;;;;;7309171;19;9497;-82
2023/10/28 11:23:57;;;;;;;;;;;12.60;99.90;;;;;;7296113;19;9261;-86
2023/10/28 11:26:27;;;;;;;;;;;12.50;99.90;;;;;;7318217;19;9486;-83
2023/10/28 11:29:00;;;;;;;;;;;12.50;99.90;;;;;;7320985;19;9166;-84
2023/10/28 11:31:31;;;;;;;;;;;12.50;99.90;;;;;;7319292;19;9297;-82
2023/10/28 11:34:01;;;;;;;;;;;12.50;99.90;;;;;;7320520;19;9532;-84
2023/10/28 11:36:33;;;;;;;;;;;12.60;99.90;;;;;;7320110;19;9352;-83
2023/10/28 11:39:12;;;;;;;;;;;12.60;99.90;;;;;;7320436;19;11217;-82
2023/10/28 11:41:47;;;;;;;;;;;12.50;99.90;;;;;;7319871;19;9249;-83
2023/10/28 11:44:15;;;;;;;;;;;12.60;99.90;;;;;;7307490;19;9508;-82
2023/10/28 11:46:46;;;;;;;;;;;12.60;99.90;;;;;;7297388;19;9394;-81
2023/10/28 11:49:15;;;;;;;;;;;12.60;99.90;;;;;;7313361;19;9768;-81
2023/10/28 11:51:47;;;;;;;;;;;12.50;99.90;;;;;;7319270;19;9552;-82
2023/10/28 11:54:15;;;;;;;;;;;12.50;99.90;;;;;;7320378;19;9175;-83
2023/10/28 11:56:44;;;;;;;;;;;12.50;99.90;;;;;;7312830;19;9142;-82
2023/10/28 11:59:13;;;;;;;;;;;12.50;99.90;;;;;;7319924;19;10876;-82
2023/10/28 12:01:43;;;;;;;;;;;12.50;99.90;;;;;;7320258;19;9254;-83
2023/10/28 12:04:12;;;;;;;;;;;12.60;99.90;;;;;;7320077;19;9132;-81
2023/10/28 12:06:42;;;;;;;;;;;12.60;99.90;;;;;;7311813;19;9319;-81
2023/10/28 12:09:14;;;;;;;;;;;12.60;99.90;;;;;;7303849;19;9422;-86
2023/10/28 12:11:44;;;;;;;;;;;12.60;99.90;;;;;;7310951;19;9491;-83
2023/10/28 12:14:13;;;;;;;;;;;12.50;99.90;;;;;;7311560;19;9559;-84
2023/10/28 12:16:42;;;;;;;;;;;12.60;99.90;;;;;;7315397;19;9364;-84
2023/10/28 12:19:11;;;;;;;;;;;12.60;99.90;;;;;;7321185;19;9559;-85
2023/10/28 12:21:41;;;;;;;;;;;12.60;99.90;;;;;;7318531;19;9603;-82
2023/10/28 12:24:14;;;;;;;;;;;12.70;99.90;;;;;;7319125;19;9252;-80
2023/10/28 12:26:43;;;;;;;;;;;12.80;99.90;;;;;;7320943;19;9207;-87
2023/10/28 12:29:11;;;;;;;;;;;12.80;99.90;;;;;;7318385;19;9226;-83
2023/10/28 12:31:40;;;;;;;;;;;12.70;99.90;;;;;;7316512;19;9505;-86
2023/10/28 12:34:09;;;;;;;;;;;12.70;99.90;;;;;;7320156;19;9219;-84
2023/10/28 12:36:38;;;;;;;;;;;12.70;99.90;;;;;;7319794;19;9498;-82
2023/10/28 12:39:10;;;;;;;;;;;12.70;99.90;;;;;;7315909;19;9128;-83
2023/10/28 12:41:41;;;;;;;;;;;12.70;99.90;;;;;;7315959;19;9254;-83
2023/10/28 12:44:10;;;;;;;;;;;12.70;99.90;;;;;;7318720;19;9281;-87
2023/10/28 12:46:39;;;;;;;;;;;12.80;99.90;;;;;;7319440;19;9233;-82
2023/10/28 12:49:08;;;;;;;;;;;12.80;99.90;;;;;;7318365;19;9230;-82
2023/10/28 12:51:37;;;;;;;;;;;12.80;99.90;;;;;;7317173;19;9816;-83
2023/10/28 12:54:06;;;;;;;;;;;12.80;99.90;;;;;;7315330;19;9238;-86
2023/10/28 12:56:36;;;;;;;;;;;12.80;99.90;;;;;;7319919;19;9656;-84
2023/10/28 12:59:08;;;;;;;;;;;12.90;99.90;;;;;;7315510;19;9253;-80
2023/10/28 13:01:38;;;;;;;;;;;12.90;99.90;;;;;;7317067;19;9128;-82
2023/10/28 13:04:08;;;;;;;;;;;13.00;99.90;;;;;;7318835;19;10659;-84
2023/10/28 13:06:37;;;;;;;;;;;13.00;99.90;;;;;;7317138;19;9306;-85
2023/10/28 13:09:11;;;;;;;;;;;13.10;99.90;;;;;;7316614;19;9468;-81
2023/10/28 13:11:41;;;;;;;;;;;13.10;99.90;;;;;;7320247;19;9289;-81
2023/10/28 13:14:15;;;;;;;;;;;13.10;99.90;;;;;;7319435;19;9590;-80
2023/10/28 13:16:44;;;;;;;;;;;13.20;99.90;;;;;;7318197;19;9250;-82
2023/10/28 13:19:13;;;;;;;;;;;13.20;99.90;;;;;;7316594;19;9226;-82
2023/10/28 13:21:44;;;;;;;;;;;13.20;99.90;;;;;;7317856;19;9281;-85
2023/10/28 13:24:13;;;;;;;;;;;13.20;99.90;;;;;;7319876;19;9265;-83
2023/10/28 13:26:42;;;;;;;;;;;13.30;99.90;;;;;;7313824;19;9485;-90
2023/10/28 13:29:13;;;;;;;;;;;13.40;99.90;;;;;;7317304;19;9258;-83
2023/10/28 13:31:42;;;;;;;;;;;13.40;99.90;;;;;;7316368;19;9596;-85
2023/10/28 13:34:11;;;;;;;;;;;13.40;99.90;;;;;;7321169;19;9226;-85
2023/10/28 13:36:40;;;;;;;;;;;13.50;99.90;;;;;;7317838;19;9176;-82
2023/10/28 13:39:09;;;;;;;;;;;13.60;99.90;;;;;;7317097;19;9317;-83
2023/10/28 13:41:38;;;;;;;;;;;13.60;99.90;;;;;;7317181;19;10525;-83
2023/10/28 13:44:08;;;;;;;;;;;13.50;99.90;;;;;;7318369;19;9335;-84
2023/10/28 13:46:40;;;;;;;;;;;13.50;99.90;;;;;;7319364;19;9166;-83
2023/10/28 13:49:09;;;;;;;;;;;13.50;99.90;;;;;;7313912;19;11209;-86
2023/10/28 13:51:38;;;;;;;;;;;13.50;99.90;;;;;;7318321;19;9352;-84
2023/10/28 13:54:09;;;;;;;;;;;13.50;99.90;;;;;;7315588;19;10449;-84
2023/10/28 13:56:38;;;;;;;;;;;13.60;99.90;;;;;;7316486;19;9578;-83
2023/10/28 13:59:07;;;;;;;;;;;13.50;99.90;;;;;;7313689;19;9256;-83
2023/10/28 14:01:38;;;;;;;;;;;13.60;99.90;;;;;;7314420;19;9509;-84
2023/10/28 14:04:08;;;;;;;;;;;13.50;99.90;;;;;;7318620;19;9325;-85
2023/10/28 14:06:38;;;;;;;;;;;13.60;99.90;;;;;;7316640;19;9219;-84
2023/10/28 14:09:09;;;;;;;;;;;13.60;99.90;;;;;;7317899;19;9260;-81
2023/10/28 14:11:38;;;;;;;;;;;13.70;99.90;;;;;;7317405;19;9400;-82
2023/10/28 14:14:08;;;;;;;;;;;13.70;99.90;;;;;;7313295;19;9262;-83
2023/10/28 14:16:40;;;;;;;;;;;13.70;99.90;;;;;;7310887;19;9428;-83
2023/10/28 14:19:08;;;;;;;;;;;13.70;99.90;;;;;;7314387;19;9256;-82
2023/10/28 14:21:38;;;;;;;;;;;13.70;99.90;;;;;;7316954;19;9245;-81
2023/10/28 14:24:08;;;;;;;;;;;13.60;99.90;;;;;;7315792;19;9226;-81
2023/10/28 14:26:37;;;;;;;;;;;13.70;99.90;;;;;;7313534;19;9241;-81
2023/10/28 14:29:06;;;;;;;;;;;13.60;99.90;;;;;;7313263;19;9948;-81
2023/10/28 14:31:35;;;;;;;;;;;13.60;99.90;;;;;;7314134;19;9389;-81
2023/10/28 14:34:07;;;;;;;;;;;13.50;99.90;;;;;;7311323;19;9537;-82
2023/10/28 14:36:36;;;;;;;;;;;13.60;99.90;;;;;;7313761;19;9308;-79
2023/10/28 14:39:06;;;;;;;;;;;13.60;99.90;;;;;;7311859;19;9194;-83
2023/10/28 14:41:36;;;;;;;;;;;13.60;99.90;;;;;;7315176;19;11179;-79
2023/10/28 14:44:06;;;;;;;;;;;13.60;99.90;;;;;;7321016;19;9230;-88
2023/10/28 14:46:35;;;;;;;;;;;13.60;99.90;;;;;;7318069;19;9529;-86